Detalii statie UNIVERSITATEA AGRICOLA IASI [0000198B]

Toti senzorii

Date Temperatura solului [C]Precipitatii [mm]Voltaj baterie [mV]HC Air temperature [C]HC Relative humidity [%]Punctul de roua [C]
medieminmaxsumaultimamedieminmaxmediemediemin
2019-10-20 00:00:00 0 6914 9.19 8.59 9.76 100 9.1 8.5
2019-10-20 01:00:00 0 6904 8.81 8.02 9.38 100 8.7 8
2019-10-20 02:00:00 0 6904 8.53 8.16 8.82 100 8.4 8.1
2019-10-20 03:00:00 0 6894 8.42 7.96 9.02 100 8.3 7.9
2019-10-20 04:00:00 0 6874 7.63 7.34 7.97 100 7.6 7.3
2019-10-20 05:00:00 0.2 6864 7.03 6.69 7.57 100 6.9 6.6
2019-10-20 06:00:00 0 6864 6.84 6.43 7.57 100 6.8 6.4
2019-10-20 07:00:00 0 6854 9.86 7.45 10.94 100 9.8 7.4
2019-10-20 08:00:00 0.4 6884 10.72 9.77 11.38 100 10.6 9.7
2019-10-20 09:00:00 0 7314 11.92 10.22 12.42 100 11.8 10.2
2019-10-20 10:00:00 0 7332 13.33 12.55 14.28 100 13.2 12.5
2019-10-20 11:00:00 0 7324 15.54 14.53 16.27 100 15.5 14.5
2019-10-20 12:00:00 0 7324 16.65 16.15 17.1 100 16.6 16.1
2019-10-20 13:00:00 0 7324 17.81 17.19 18.35 100 17.7 17.1
2019-10-20 14:00:00 0 7324 18.83 18.49 19.13 100 18.7 18.4
2019-10-20 15:00:00 0 7294 19.7 19.28 20.05 100 19.6 19.2
2019-10-20 16:00:00 0 7206 18.87 18.21 19.52 100 18.8 18.2
2019-10-20 17:00:00 0 7108 16.99 15.88 18.07 100 16.9 15.8
2019-10-20 18:00:00 0 7060 14.97 14.12 15.84 100 14.9 14.1
2019-10-20 19:00:00 0 7020 13.66 13.01 14.09 100 13.6 13
2019-10-20 20:00:00 0 6942 12.75 12.46 13.08 100 12.6 12.4
2019-10-20 21:00:00 0 6942 12.61 12.26 12.94 100 12.5 12.2
2019-10-20 22:00:00 0 6932 12.23 11.53 12.78 100 12.2 11.5
2019-10-20 23:00:00 0 6914 12.31 12.15 12.53 100 12.2 12.1
2019-10-21 00:00:00 0 6914 11.69 10.93 12.34 100 11.6 10.9
2019-10-21 01:00:00 0 6894 11.36 11.07 11.56 100 11.3 11
2019-10-21 02:00:00 0 6884 10.68 10.36 11.15 100 10.6 10.3
2019-10-21 03:00:00 0 6874 10.02 8.61 10.99 100 9.9 8.6
2019-10-21 04:00:00 0.2 6874 9.19 8.4 9.8 100 9.1 8.4
2019-10-21 05:00:00 0 6864 8.83 8.23 10.23 100 8.7 8.2
2019-10-21 06:00:00 0 6864 11.9 9.02 12.76 100 11.8 9
2019-10-21 07:00:00 0 6864 12.75 12.67 12.89 100 12.7 12.6
2019-10-21 08:00:00 0 6904 13.02 12.84 13.21 100 12.9 12.8
2019-10-21 09:00:00 0 7138 13.57 13.27 13.86 100 13.5 13.2
2019-10-21 10:00:00 0 7324 14.41 13.89 15.16 100 14.3 13.8
2019-10-21 11:00:00 0 7324 16.2 15.29 16.84 100 16.1 15.2
2019-10-21 12:00:00 0 7314 17.35 16.64 17.9 100 17.3 16.6
2019-10-21 13:00:00 0 7324 18.42 17.7 19.38 100 18.3 17.7
2019-10-21 14:00:00 0 7314 20.15 19.6 20.87 100 20.1 19.6
2019-10-21 15:00:00 0 7304 20.78 20.58 20.98 100 20.7 20.5
2019-10-21 16:00:00 0 7294 20.71 20.33 20.95 100 20.6 20.3
2019-10-21 17:00:00 0 7108 19.66 18.57 20.32 100 19.6 18.5
2019-10-21 18:00:00 0 7050 17.52 16.96 18.47 100 17.4 16.9
2019-10-21 19:00:00 0 7010 16.11 15.4 16.93 100 16 15.4